Time;durP1;ratioP1;P1;durP2;ratioP2;P2;SDS_P1;SDS_P2;PMS_P1;PMS_P2;Temp;Humidity;BMP_temperature;BMP_pressure;BME280_temperature;BME280_humidity;BME280_pressure;Samples;Min_cycle;Max_cycle;Signal;HPM_P1;HPM_P2
2022/01/09 00:00:11;;;;;;;5.37;2.10;;;;;;;4.36;100.00;98377.06;5099913;28;20738;-66
2022/01/09 00:02:40;;;;;;;4.20;1.37;;;;;;;4.42;100.00;98364.13;5107790;27;20204;-66
2022/01/09 00:05:09;;;;;;;6.37;1.70;;;;;;;4.47;100.00;98374.16;5097992;27;20559;-66
2022/01/09 00:07:38;;;;;;;3.37;1.23;;;;;;;4.44;100.00;98363.97;5096969;28;20301;-67
2022/01/09 00:10:07;;;;;;;3.30;1.30;;;;;;;4.49;100.00;98359.06;5097707;27;20216;-67
2022/01/09 00:12:37;;;;;;;3.60;1.30;;;;;;;4.64;100.00;98360.09;5095070;28;20277;-67
2022/01/09 00:15:07;;;;;;;3.57;1.67;;;;;;;4.57;100.00;98356.47;5097937;28;20212;-66
2022/01/09 00:17:35;;;;;;;3.37;1.67;;;;;;;4.54;100.00;98343.66;5094811;27;20217;-66
2022/01/09 00:20:04;;;;;;;6.80;1.73;;;;;;;4.52;100.00;98341.19;5100960;27;20206;-66
2022/01/09 00:22:37;;;;;;;2.40;1.20;;;;;;;4.51;100.00;98336.94;5101866;27;20214;-65
2022/01/09 00:25:06;;;;;;;5.40;1.30;;;;;;;4.54;100.00;98335.78;5095238;27;20235;-66
2022/01/09 00:27:35;;;;;;;6.10;1.10;;;;;;;4.51;100.00;98334.31;5095580;28;20747;-66
2022/01/09 00:30:05;;;;;;;3.67;1.10;;;;;;;4.60;100.00;98322.00;5095442;27;20214;-66
2022/01/09 00:32:33;;;;;;;1.83;0.93;;;;;;;4.59;100.00;98324.78;5102581;28;20661;-67
2022/01/09 00:35:01;;;;;;;2.60;0.80;;;;;;;4.67;100.00;98323.00;5111940;27;20348;-66
2022/01/09 00:37:28;;;;;;;3.50;1.10;;;;;;;4.67;100.00;98325.63;5098961;28;20291;-66
2022/01/09 00:39:56;;;;;;;2.70;1.00;;;;;;;4.63;100.00;98311.19;5097162;28;20308;-66
2022/01/09 00:42:24;;;;;;;3.50;1.10;;;;;;;4.71;100.00;98308.59;5096951;27;20652;-66
2022/01/09 00:44:52;;;;;;;4.53;1.27;;;;;;;4.72;100.00;98310.22;5094193;28;20213;-66
2022/01/09 00:47:21;;;;;;;5.43;0.80;;;;;;;4.73;100.00;98301.38;5108336;27;20226;-66
2022/01/09 00:49:49;;;;;;;1.97;0.80;;;;;;;4.84;100.00;98303.66;5104623;27;20240;-66
2022/01/09 00:52:16;;;;;;;1.97;0.60;;;;;;;4.80;100.00;98297.09;5094639;28;20364;-66
2022/01/09 00:54:45;;;;;;;2.27;0.80;;;;;;;4.85;100.00;98294.78;5095359;28;20583;-66
2022/01/09 00:57:12;;;;;;;3.53;0.63;;;;;;;4.89;100.00;98296.09;5107424;27;20216;-67
2022/01/09 00:59:40;;;;;;;1.87;0.70;;;;;;;4.93;100.00;98284.28;5109153;27;20311;-66
2022/01/09 01:02:08;;;;;;;0.73;0.30;;;;;;;5.00;100.00;98281.00;5100601;27;20222;-66
2022/01/09 01:04:38;;;;;;;3.03;0.40;;;;;;;5.03;100.00;98278.03;5103295;27;20261;-66
2022/01/09 01:07:06;;;;;;;2.87;0.50;;;;;;;4.95;100.00;98272.78;5103940;27;20667;-66
2022/01/09 01:09:34;;;;;;;4.33;0.63;;;;;;;5.10;100.00;98268.53;5097615;28;20210;-66
2022/01/09 01:12:03;;;;;;;2.00;0.50;;;;;;;5.10;100.00;98266.69;5093670;27;20242;-66
2022/01/09 01:14:32;;;;;;;0.30;0.20;;;;;;;5.05;100.00;98258.50;5102989;27;20312;-66
2022/01/09 01:17:00;;;;;;;2.67;0.40;;;;;;;4.99;100.00;98258.34;5106343;27;20212;-66
2022/01/09 01:19:28;;;;;;;1.13;0.50;;;;;;;5.11;100.00;98257.81;5100469;27;20409;-66
2022/01/09 01:22:06;;;;;;;3.60;0.50;;;;;;;5.09;100.00;98259.00;5085130;28;20201;-66
2022/01/09 01:24:36;;;;;;;1.60;0.50;;;;;;;5.07;100.00;98259.16;5097309;27;20234;-65
2022/01/09 01:27:05;;;;;;;1.27;0.50;;;;;;;5.12;100.00;98253.41;5099536;27;20209;-66
2022/01/09 01:29:34;;;;;;;0.67;0.20;;;;;;;5.23;100.00;98251.25;5105271;27;20223;-67
2022/01/09 01:32:02;;;;;;;0.77;0.30;;;;;;;5.14;100.00;98251.44;5098606;28;20551;-67
2022/01/09 01:34:29;;;;;;;3.03;0.70;;;;;;;5.27;100.00;98259.63;5095168;28;20266;-66
2022/01/09 01:36:57;;;;;;;0.37;0.20;;;;;;;5.24;100.00;98252.06;5102189;27;20279;-66
2022/01/09 01:39:26;;;;;;;1.07;0.40;;;;;;;5.29;100.00;98249.75;5103366;27;20210;-66
2022/01/09 01:41:54;;;;;;;2.97;0.40;;;;;;;5.19;100.00;98254.38;5106274;27;20206;-66
2022/01/09 01:44:22;;;;;;;1.60;0.53;;;;;;;5.16;100.00;98238.94;5100001;28;20301;-66
2022/01/09 01:46:50;;;;;;;2.60;1.17;;;;;;;5.25;100.00;98236.13;5105289;27;20359;-66
2022/01/09 01:49:17;;;;;;;2.17;0.30;;;;;;;5.22;100.00;98246.16;5100411;27;20672;-66
2022/01/09 01:51:45;;;;;;;1.20;0.40;;;;;;;5.27;100.00;98244.69;5098921;27;20217;-66
2022/01/09 01:54:14;;;;;;;1.20;0.40;;;;;;;5.34;100.00;98236.13;5097915;28;20225;-66
2022/01/09 01:56:43;;;;;;;1.23;0.50;;;;;;;5.29;100.00;98232.16;5101200;28;20293;-66
2022/01/09 01:59:11;;;;;;;0.90;0.50;;;;;;;5.22;100.00;98240.91;5096406;27;20300;-66
2022/01/09 02:01:38;;;;;;;1.47;0.40;;;;;;;5.15;100.00;98242.56;5099174;27;20206;-65
2022/01/09 02:04:06;;;;;;;1.20;0.40;;;;;;;5.25;100.00;98235.31;5107020;27;20217;-66
2022/01/09 02:06:35;;;;;;;0.97;0.50;;;;;;;5.20;100.00;98242.88;5094445;28;20216;-66
2022/01/09 02:09:04;;;;;;;2.17;0.43;;;;;;;5.32;100.00;98236.28;5095128;27;20213;-66
2022/01/09 02:11:34;;;;;;;0.90;0.20;;;;;;;5.39;100.00;98231.97;5098278;28;20298;-66
2022/01/09 02:14:03;;;;;;;1.20;0.50;;;;;;;5.45;100.00;98241.84;5100227;27;20237;-67
2022/01/09 02:16:30;;;;;;;1.70;0.50;;;;;;;5.38;100.00;98242.66;5107132;27;20302;-66
2022/01/09 02:19:02;;;;;;;0.63;0.33;;;;;;;5.32;100.00;98241.53;5103672;27;20221;-66
2022/01/09 02:21:31;;;;;;;2.90;0.40;;;;;;;5.34;100.00;98242.19;5102211;28;20232;-66
2022/01/09 02:23:59;;;;;;;1.33;0.83;;;;;;;5.27;100.00;98243.84;5099235;27;20732;-66
2022/01/09 02:26:27;;;;;;;0.90;0.57;;;;;;;5.32;100.00;98252.03;5094953;28;20229;-66
2022/01/09 02:28:55;;;;;;;2.17;0.50;;;;;;;5.23;100.00;98250.41;5100905;28;20224;-66
2022/01/09 02:31:23;;;;;;;1.53;0.50;;;;;;;5.32;100.00;98254.66;5096882;28;20282;-66
2022/01/09 02:33:50;;;;;;;2.27;0.40;;;;;;;5.19;100.00;98255.19;5095320;28;20321;-66
2022/01/09 02:36:18;;;;;;;1.00;0.40;;;;;;;5.37;100.00;98252.34;5094601;28;20532;-66
2022/01/09 02:38:48;;;;;;;0.97;0.50;;;;;;;5.29;100.00;98265.50;5104419;28;20202;-66
2022/01/09 02:41:19;;;;;;;0.63;0.50;;;;;;;5.45;100.00;98265.50;5099018;28;20217;-66
2022/01/09 02:43:47;;;;;;;1.57;0.50;;;;;;;5.53;100.00;98277.78;5098068;28;20619;-66
2022/01/09 02:46:30;;;;;;;1.30;0.50;;;;;;;5.60;100.00;98274.31;5094724;27;20716;-67
2022/01/09 02:48:58;;;;;;;0.70;0.37;;;;;;;5.52;100.00;98278.75;5105232;27;20321;-66
2022/01/09 02:51:26;;;;;;;0.93;0.40;;;;;;;5.39;100.00;98283.72;5110782;27;20594;-66
2022/01/09 02:54:08;;;;;;;1.00;0.40;;;;;;;5.73;100.00;98288.69;5103548;28;20259;-66
2022/01/09 02:56:36;;;;;;;0.83;0.33;;;;;;;5.71;100.00;98293.34;5107721;28;20205;-67
2022/01/09 02:59:04;;;;;;;0.50;0.20;;;;;;;5.82;100.00;98293.75;5105475;27;20210;-66
2022/01/09 03:01:31;;;;;;;0.63;0.20;;;;;;;5.78;100.00;98307.44;5100157;27;20267;-66
2022/01/09 03:03:59;;;;;;;1.17;0.30;;;;;;;5.87;99.55;98304.59;5108639;27;20762;-67
2022/01/09 03:06:27;;;;;;;0.60;0.20;;;;;;;5.90;98.01;98308.72;5102653;28;20576;-66
2022/01/09 03:09:00;;;;;;;0.20;0.10;;;;;;;5.87;97.34;98311.66;5105529;27;20206;-65
2022/01/09 03:11:28;;;;;;;0.10;0.10;;;;;;;5.89;96.28;98325.50;5101712;27;21229;-66
2022/01/09 03:13:56;;;;;;;0.60;0.13;;;;;;;5.92;96.12;98327.78;5102377;28;20766;-66
2022/01/09 03:16:23;;;;;;;0.20;0.20;;;;;;;6.01;95.47;98326.75;5107803;27;20198;-66
2022/01/09 03:18:51;;;;;;;0.40;0.10;;;;;;;5.99;95.55;98347.16;5106928;28;20213;-66
2022/01/09 03:21:19;;;;;;;0.87;0.20;;;;;;;6.04;94.89;98344.84;5105127;27;20289;-66
2022/01/09 03:23:47;;;;;;;0.60;0.10;;;;;;;5.97;94.92;98351.78;5100468;27;20255;-66
2022/01/09 03:26:16;;;;;;;0.40;0.20;;;;;;;5.89;95.71;98359.69;5107939;27;20358;-65
2022/01/09 03:28:44;;;;;;;0.60;0.17;;;;;;;5.92;96.04;98361.97;5104070;27;20239;-66
2022/01/09 03:31:12;;;;;;;0.73;0.37;;;;;;;5.96;96.05;98368.56;5105249;27;20209;-66
2022/01/09 03:33:40;;;;;;;0.90;0.47;;;;;;;5.94;96.19;98376.59;5098483;27;20488;-67
2022/01/09 03:36:07;;;;;;;0.97;0.20;;;;;;;5.94;96.13;98381.88;5105177;27;20569;-66
2022/01/09 03:38:35;;;;;;;1.10;0.33;;;;;;;6.03;96.05;98374.78;5104463;27;20206;-66
2022/01/09 03:41:03;;;;;;;0.40;0.23;;;;;;;6.08;95.71;98393.47;5109164;27;20293;-66
2022/01/09 03:43:32;;;;;;;2.33;0.23;;;;;;;6.03;95.22;98393.19;5100837;27;20237;-66
2022/01/09 03:46:04;;;;;;;1.63;0.30;;;;;;;6.15;94.79;98396.28;5100749;27;20205;-66
2022/01/09 03:48:32;;;;;;;0.37;0.20;;;;;;;6.01;94.00;98389.91;5108323;27;20213;-65
2022/01/09 03:51:02;;;;;;;0.83;0.30;;;;;;;6.14;93.22;98395.47;5099960;28;20229;-65
2022/01/09 03:53:30;;;;;;;0.37;0.10;;;;;;;6.21;91.78;98406.13;5106258;27;20564;-65
2022/01/09 03:55:58;;;;;;;0.27;0.10;;;;;;;6.16;90.54;98413.69;5104442;27;21080;-65
2022/01/09 03:58:26;;;;;;;0.40;0.20;;;;;;;6.15;90.00;98418.16;5106928;27;20253;-66
2022/01/09 04:00:55;;;;;;;0.20;0.10;;;;;;;6.20;89.03;98428.16;5101767;27;20211;-65
2022/01/09 04:03:24;;;;;;;0.10;0.10;;;;;;;6.08;88.24;98446.09;5108325;28;20292;-66
2022/01/09 04:05:52;;;;;;;0.47;0.20;;;;;;;6.08;87.77;98440.84;5108116;27;20213;-66
2022/01/09 04:08:20;;;;;;;0.10;0.10;;;;;;;6.25;86.11;98458.22;5110604;27;20210;-66
2022/01/09 04:10:50;;;;;;;0.20;0.20;;;;;;;6.15;85.83;98469.97;5101460;28;20297;-66
2022/01/09 04:13:18;;;;;;;0.10;0.00;;;;;;;6.17;85.23;98481.94;5086605;28;20633;-66
2022/01/09 04:15:48;;;;;;;0.93;0.10;;;;;;;6.18;84.74;98490.66;5084867;28;20633;-66
2022/01/09 04:18:20;;;;;;;0.10;0.07;;;;;;;6.10;84.32;98490.66;5072810;28;20227;-66
2022/01/09 04:20:48;;;;;;;0.47;0.10;;;;;;;6.06;84.52;98508.63;5081071;28;20226;-66
2022/01/09 04:23:16;;;;;;;0.63;0.10;;;;;;;6.12;84.13;98502.69;5085602;28;20481;-66
2022/01/09 04:25:45;;;;;;;0.53;0.10;;;;;;;6.09;84.16;98512.69;5084366;28;20223;-66
2022/01/09 04:28:13;;;;;;;0.10;0.00;;;;;;;6.03;83.51;98535.25;5087052;28;20235;-66
2022/01/09 04:30:42;;;;;;;0.20;0.10;;;;;;;6.06;84.30;98532.31;5080590;28;20214;-66
2022/01/09 04:33:10;;;;;;;0.90;0.10;;;;;;;5.96;83.69;98539.53;5084830;28;20712;-66
2022/01/09 04:35:40;;;;;;;0.13;0.10;;;;;;;6.15;83.79;98552.34;5082158;28;20227;-66
2022/01/09 04:38:08;;;;;;;0.10;0.10;;;;;;;5.97;83.66;98559.59;5086424;28;20682;-66
2022/01/09 04:40:37;;;;;;;1.23;0.10;;;;;;;6.05;83.64;98562.22;5082588;28;20245;-66
2022/01/09 04:43:07;;;;;;;0.83;0.10;;;;;;;6.14;82.92;98571.75;5078525;28;20295;-66
2022/01/09 04:45:35;;;;;;;0.10;0.00;;;;;;;5.96;83.37;98582.44;5080547;28;20204;-64
2022/01/09 04:48:07;;;;;;;0.17;0.10;;;;;;;5.99;82.84;98594.44;5081128;28;20929;-65
2022/01/09 04:50:37;;;;;;;0.20;0.00;;;;;;;6.05;82.63;98596.44;5086805;28;20200;-65
2022/01/09 04:53:08;;;;;;;0.10;0.03;;;;;;;6.00;82.84;98598.72;5082216;28;20766;-65
2022/01/09 04:55:39;;;;;;;0.63;0.10;;;;;;;5.99;82.29;98615.47;5075675;28;20232;-66
2022/01/09 04:58:06;;;;;;;0.83;0.20;;;;;;;6.10;82.61;98623.06;5078648;28;20199;-65
2022/01/09 05:00:34;;;;;;;0.20;0.07;;;;;;;6.06;83.36;98624.38;5083668;28;20203;-65
2022/01/09 05:03:02;;;;;;;1.20;0.20;;;;;;;5.91;83.85;98629.44;5077188;28;20659;-65
2022/01/09 05:05:31;;;;;;;0.67;0.13;;;;;;;5.90;84.93;98632.25;5072538;28;20211;-65
2022/01/09 05:07:59;;;;;;;0.10;0.10;;;;;;;5.92;84.58;98639.00;5085076;28;20306;-65
2022/01/09 05:10:30;;;;;;;0.63;0.10;;;;;;;5.99;84.62;98633.91;5084502;28;20210;-65
2022/01/09 05:12:57;;;;;;;0.07;0.07;;;;;;;6.00;84.15;98641.63;5085120;28;20266;-66
2022/01/09 05:15:25;;;;;;;0.60;0.17;;;;;;;5.83;84.60;98654.91;5086902;28;20244;-66
2022/01/09 05:17:58;;;;;;;0.13;0.10;;;;;;;5.85;84.20;98655.56;5075200;28;20239;-66
2022/01/09 05:20:26;;;;;;;0.30;0.10;;;;;;;5.96;83.95;98656.13;5082679;28;20293;-66
2022/01/09 05:22:54;;;;;;;0.60;0.10;;;;;;;5.81;83.96;98680.53;5070057;28;20295;-66
2022/01/09 05:25:22;;;;;;;0.20;0.10;;;;;;;5.89;83.74;98689.28;5072197;28;20314;-66
2022/01/09 05:27:51;;;;;;;0.23;0.10;;;;;;;5.67;84.25;98697.75;5079129;28;20676;-66
2022/01/09 05:30:19;;;;;;;0.73;0.20;;;;;;;5.71;84.47;98706.16;5077394;28;20310;-66
2022/01/09 05:32:47;;;;;;;0.10;0.10;;;;;;;5.46;84.68;98718.38;5074423;28;20211;-66
2022/01/09 05:35:15;;;;;;;0.93;0.10;;;;;;;5.71;83.77;98716.69;5073604;28;20303;-66
2022/01/09 05:37:42;;;;;;;0.37;0.10;;;;;;;5.73;83.25;98725.22;5073498;28;20313;-66
2022/01/09 05:40:11;;;;;;;0.40;0.10;;;;;;;5.86;83.62;98728.22;5085059;28;20238;-65
2022/01/09 05:42:39;;;;;;;0.10;0.10;;;;;;;5.91;83.25;98736.47;5071886;28;20302;-65
2022/01/09 05:45:09;;;;;;;0.77;0.30;;;;;;;5.91;83.35;98736.47;5073303;28;20749;-66
2022/01/09 05:47:38;;;;;;;0.90;0.30;;;;;;;5.74;83.18;98746.09;5081630;28;20255;-66
2022/01/09 05:50:06;;;;;;;1.30;0.70;;;;;;;5.60;84.03;98758.06;5083031;28;20234;-66
2022/01/09 05:52:34;;;;;;;0.97;0.20;;;;;;;5.78;83.97;98750.06;5081611;28;20215;-66
2022/01/09 05:55:02;;;;;;;0.33;0.20;;;;;;;5.74;83.62;98763.69;5082392;28;20202;-66
2022/01/09 05:57:30;;;;;;;0.93;0.37;;;;;;;5.71;84.40;98769.28;5079172;28;20306;-66
2022/01/09 05:59:57;;;;;;;1.23;0.40;;;;;;;5.73;83.48;98767.28;5082745;28;20242;-66
2022/01/09 06:02:26;;;;;;;2.20;0.33;;;;;;;5.84;83.61;98778.34;5093177;28;20216;-66
2022/01/09 06:04:54;;;;;;;6.40;0.50;;;;;;;5.82;82.99;98776.84;5077943;28;20215;-66
2022/01/09 06:07:22;;;;;;;1.00;0.40;;;;;;;5.89;82.65;98789.25;5081249;28;20217;-65
2022/01/09 06:09:50;;;;;;;2.90;0.70;;;;;;;5.81;83.17;98788.38;5086257;28;20329;-66
2022/01/09 06:12:17;;;;;;;1.63;0.57;;;;;;;5.88;82.91;98792.88;5080650;28;20671;-66
2022/01/09 06:14:45;;;;;;;1.77;0.57;;;;;;;5.91;82.67;98800.44;5079554;28;20206;-66
2022/01/09 06:17:13;;;;;;;2.53;0.77;;;;;;;5.86;83.27;98807.13;5080586;28;20231;-66
2022/01/09 06:19:42;;;;;;;3.17;0.50;;;;;;;5.78;83.52;98817.63;5078245;28;21410;-66
2022/01/09 06:22:10;;;;;;;1.73;0.50;;;;;;;5.86;83.75;98825.56;5071670;28;20686;-66
2022/01/09 06:24:37;;;;;;;3.13;0.60;;;;;;;5.75;84.12;98823.19;5070975;28;20650;-66
2022/01/09 06:27:06;;;;;;;3.10;0.77;;;;;;;5.99;83.31;98831.22;5074438;28;20210;-66
2022/01/09 06:29:34;;;;;;;6.80;0.80;;;;;;;6.01;82.89;98827.44;5070267;28;20211;-66
2022/01/09 06:32:01;;;;;;;3.33;0.70;;;;;;;5.85;83.44;98844.94;5073314;28;20302;-66
2022/01/09 06:34:29;;;;;;;4.83;1.00;;;;;;;5.96;83.22;98842.06;5075576;28;20209;-66
2022/01/09 06:36:58;;;;;;;3.43;0.90;;;;;;;6.09;82.82;98849.50;5074683;28;20727;-66
2022/01/09 06:39:26;;;;;;;4.20;0.73;;;;;;;5.96;82.32;98847.34;5083683;28;20217;-66
2022/01/09 06:41:54;;;;;;;3.97;0.97;;;;;;;5.99;83.09;98852.25;5084205;28;20400;-66
2022/01/09 06:44:22;;;;;;;11.33;1.33;;;;;;;6.07;82.22;98860.19;5083254;28;20206;-65
2022/01/09 06:46:49;;;;;;;4.93;0.97;;;;;;;6.01;82.18;98871.34;5083127;28;20712;-65
2022/01/09 06:49:17;;;;;;;5.07;1.10;;;;;;;6.06;81.88;98868.25;5081717;28;20238;-65
2022/01/09 06:51:45;;;;;;;5.07;1.20;;;;;;;6.03;81.93;98874.66;5083477;28;20214;-65
2022/01/09 06:54:14;;;;;;;7.93;1.40;;;;;;;6.13;81.56;98891.16;5073955;28;20215;-65
2022/01/09 06:56:42;;;;;;;4.57;1.07;;;;;;;5.96;81.29;98894.69;5076207;28;20230;-65
2022/01/09 06:59:10;;;;;;;9.93;1.87;;;;;;;6.13;81.78;98901.69;5073241;28;20210;-65
2022/01/09 07:01:37;;;;;;;7.80;1.33;;;;;;;6.20;81.10;98915.84;5075830;28;20243;-64
2022/01/09 07:04:05;;;;;;;10.10;1.80;;;;;;;6.02;81.69;98915.09;5075481;28;20219;-65
2022/01/09 07:06:34;;;;;;;5.57;1.70;;;;;;;6.18;81.42;98925.69;5080817;28;20292;-65
2022/01/09 07:09:02;;;;;;;6.37;1.33;;;;;;;6.14;81.46;98934.91;5073282;28;20215;-66
2022/01/09 07:11:31;;;;;;;6.50;1.77;;;;;;;6.29;81.21;98940.41;5070990;28;20211;-65
2022/01/09 07:13:59;;;;;;;11.47;1.53;;;;;;;6.20;81.21;98944.81;5073536;28;20670;-65
2022/01/09 07:16:27;;;;;;;7.60;1.63;;;;;;;6.29;81.07;98956.19;5076597;28;20281;-65
2022/01/09 07:18:55;;;;;;;7.23;2.20;;;;;;;6.20;81.84;98957.97;5073977;28;20211;-65
2022/01/09 07:21:22;;;;;;;9.80;2.17;;;;;;;6.28;82.27;98965.91;5076653;28;20357;-66
2022/01/09 07:23:50;;;;;;;7.57;1.87;;;;;;;6.26;83.00;98975.75;5075354;28;20226;-66
2022/01/09 07:26:18;;;;;;;8.10;1.30;;;;;;;6.28;82.70;98981.69;5079121;28;20421;-66
2022/01/09 07:28:47;;;;;;;7.07;1.40;;;;;;;6.31;82.25;98989.28;5071683;28;20641;-66
2022/01/09 07:31:14;;;;;;;10.27;2.00;;;;;;;6.28;81.84;98997.47;5073288;28;20207;-66
2022/01/09 07:33:42;;;;;;;7.50;1.77;;;;;;;6.28;81.53;99007.19;5077510;28;20214;-67
2022/01/09 07:36:10;;;;;;;8.83;1.60;;;;;;;6.29;81.10;99014.09;5081043;28;20232;-66
2022/01/09 07:38:37;;;;;;;7.80;1.33;;;;;;;6.21;80.49;99017.53;5077375;28;20198;-66
2022/01/09 07:41:05;;;;;;;5.87;1.40;;;;;;;6.31;80.58;99020.88;5077434;28;20758;-67
2022/01/09 07:43:33;;;;;;;10.90;1.67;;;;;;;6.36;80.99;99029.13;5075943;28;20252;-66
2022/01/09 07:46:02;;;;;;;7.30;2.07;;;;;;;6.23;81.04;99036.63;5073212;28;20222;-66
2022/01/09 07:48:30;;;;;;;5.70;1.27;;;;;;;6.37;80.54;99035.22;5081934;28;20452;-66
2022/01/09 07:50:57;;;;;;;7.10;1.77;;;;;;;6.21;81.69;99041.22;5088062;28;20203;-65
2022/01/09 07:53:25;;;;;;;5.30;1.13;;;;;;;6.31;81.66;99049.00;5080152;28;20215;-66
2022/01/09 07:55:53;;;;;;;4.83;1.30;;;;;;;6.33;81.67;99058.38;5093070;28;20671;-66
2022/01/09 07:58:21;;;;;;;4.37;1.10;;;;;;;6.27;81.08;99056.38;5096700;28;20223;-66
2022/01/09 08:00:49;;;;;;;4.97;1.73;;;;;;;6.18;80.81;99072.25;5078978;28;20238;-66
2022/01/09 08:03:18;;;;;;;5.73;1.47;;;;;;;6.24;79.53;99077.75;5079423;28;20211;-67
2022/01/09 08:05:46;;;;;;;4.30;1.40;;;;;;;6.28;79.12;99083.53;5074793;28;20237;-66
2022/01/09 08:08:14;;;;;;;6.83;1.27;;;;;;;6.28;78.60;99086.97;5079986;28;20210;-66
2022/01/09 08:10:42;;;;;;;5.47;1.10;;;;;;;6.21;78.27;99093.03;5079080;28;20211;-65
2022/01/09 08:13:09;;;;;;;2.63;1.00;;;;;;;6.35;77.46;99095.91;5099205;28;20780;-66
2022/01/09 08:15:37;;;;;;;5.07;0.90;;;;;;;6.34;77.33;99103.97;5097320;27;20631;-66
2022/01/09 08:18:05;;;;;;;4.47;0.90;;;;;;;6.24;77.60;99119.88;5100552;27;20351;-66
2022/01/09 08:20:34;;;;;;;8.30;1.67;;;;;;;6.14;78.62;99124.41;5109360;27;20231;-66
2022/01/09 08:23:02;;;;;;;7.90;1.30;;;;;;;6.15;78.88;99114.69;5101581;27;20302;-66
2022/01/09 08:25:35;;;;;;;5.90;1.97;;;;;;;6.29;78.72;99125.50;5093977;28;20483;-66
2022/01/09 08:28:03;;;;;;;3.67;1.00;;;;;;;6.22;78.70;99121.00;5096379;27;20210;-66
2022/01/09 08:30:31;;;;;;;5.83;1.27;;;;;;;6.31;78.75;99120.09;5097151;27;20214;-66
2022/01/09 08:32:58;;;;;;;11.20;2.83;;;;;;;6.27;79.39;99127.44;5097904;28;20632;-66
2022/01/09 08:35:26;;;;;;;3.60;1.10;;;;;;;6.18;79.63;99125.72;5100901;27;20319;-65
2022/01/09 08:37:55;;;;;;;10.93;2.13;;;;;;;6.24;79.52;99135.66;5097719;28;20228;-66
2022/01/09 08:40:23;;;;;;;7.80;1.77;;;;;;;6.34;79.46;99138.19;5094874;27;20788;-66
2022/01/09 08:42:54;;;;;;;5.10;1.40;;;;;;;6.22;78.92;99150.78;5094802;28;20208;-65
2022/01/09 08:45:23;;;;;;;7.83;1.23;;;;;;;6.12;79.37;99154.47;5099299;27;20211;-67
2022/01/09 08:47:51;;;;;;;6.53;1.40;;;;;;;6.22;79.47;99147.31;5097018;28;20227;-66
2022/01/09 08:50:20;;;;;;;7.13;2.10;;;;;;;6.35;79.05;99148.56;5098731;28;20297;-66
2022/01/09 08:52:48;;;;;;;5.63;1.37;;;;;;;6.32;79.35;99148.91;5094890;28;20238;-66
2022/01/09 08:55:18;;;;;;;7.80;1.87;;;;;;;6.28;79.58;99147.53;5099403;28;20221;-67
2022/01/09 08:57:46;;;;;;;7.17;1.57;;;;;;;6.18;79.90;99146.78;5097985;27;21419;-67
2022/01/09 09:00:15;;;;;;;3.53;1.07;;;;;;;6.17;79.67;99155.66;5097300;28;20246;-66
2022/01/09 09:02:43;;;;;;;5.00;1.37;;;;;;;6.12;78.55;99147.41;5099205;27;20207;-66
2022/01/09 09:05:11;;;;;;;3.30;1.00;;;;;;;6.27;77.63;99150.31;5097802;27;20203;-66
2022/01/09 09:07:39;;;;;;;9.60;1.77;;;;;;;6.36;76.69;99155.50;5093330;28;20218;-65
2022/01/09 09:10:07;;;;;;;6.27;1.10;;;;;;;5.96;77.14;99161.25;5098341;27;20293;-65
2022/01/09 09:12:36;;;;;;;11.03;2.70;;;;;;;6.19;76.65;99166.03;5095854;27;20262;-65
2022/01/09 09:15:06;;;;;;;10.80;1.50;;;;;;;6.14;75.90;99171.78;5100873;27;20205;-66
2022/01/09 09:17:35;;;;;;;14.30;2.17;;;;;;;6.29;75.62;99170.25;5098466;27;20558;-66
2022/01/09 09:20:04;;;;;;;5.30;1.70;;;;;;;6.36;74.87;99176.56;5104765;27;20689;-66
2022/01/09 09:22:32;;;;;;;4.40;1.50;;;;;;;6.23;75.12;99181.41;5106819;27;20203;-66
2022/01/09 09:25:00;;;;;;;11.43;1.50;;;;;;;6.35;75.10;99172.25;5107103;27;20752;-66
2022/01/09 09:27:30;;;;;;;9.77;1.40;;;;;;;6.31;75.33;99189.34;5106893;28;20294;-67
2022/01/09 09:30:02;;;;;;;6.37;1.07;;;;;;;6.34;75.52;99182.94;5106972;28;20218;-66
2022/01/09 09:32:31;;;;;;;9.83;2.20;;;;;;;6.36;74.45;99181.81;5103614;27;20226;-66
2022/01/09 09:34:59;;;;;;;6.93;1.60;;;;;;;6.42;74.25;99183.84;5104708;28;20851;-66
2022/01/09 09:37:28;;;;;;;19.87;4.70;;;;;;;6.55;73.37;99195.78;5107577;27;20274;-65
2022/01/09 09:39:56;;;;;;;9.13;2.47;;;;;;;6.46;73.77;99200.16;5104227;27;20724;-66
2022/01/09 09:42:23;;;;;;;7.40;2.03;;;;;;;6.29;73.65;99187.84;5092652;28;20220;-66
2022/01/09 09:44:51;;;;;;;9.37;1.80;;;;;;;6.33;73.34;99197.91;5096447;28;20300;-66
2022/01/09 09:47:22;;;;;;;9.27;1.53;;;;;;;6.57;72.96;99193.84;5096081;28;20303;-66
2022/01/09 09:49:50;;;;;;;6.13;1.27;;;;;;;6.68;72.59;99198.84;5096653;27;20635;-66
2022/01/09 09:52:19;;;;;;;12.50;1.70;;;;;;;6.54;72.15;99194.13;5096836;28;20313;-66
2022/01/09 09:54:48;;;;;;;8.40;1.07;;;;;;;6.64;71.56;99200.97;5095744;28;20303;-67
2022/01/09 09:57:16;;;;;;;10.07;1.77;;;;;;;6.73;71.83;99193.94;5091988;28;20711;-66
2022/01/09 09:59:44;;;;;;;8.20;1.40;;;;;;;6.51;71.84;99210.25;5095465;28;20514;-66
2022/01/09 10:02:14;;;;;;;8.37;1.10;;;;;;;6.83;71.63;99199.13;5093852;28;20208;-66
2022/01/09 10:05:00;;;;;;;6.00;1.30;;;;;;;6.97;70.94;99216.97;5094735;28;20873;-66
2022/01/09 10:07:29;;;;;;;9.57;2.10;;;;;;;7.24;69.89;99216.81;5092597;28;20306;-66
2022/01/09 10:09:58;;;;;;;8.43;1.57;;;;;;;7.10;69.32;99220.88;5096883;28;20214;-66
2022/01/09 10:12:28;;;;;;;5.23;1.40;;;;;;;7.09;69.74;99227.13;5097088;28;20323;-66
2022/01/09 10:15:02;;;;;;;6.67;1.90;;;;;;;7.35;69.07;99237.63;5091726;28;20213;-67
2022/01/09 10:17:31;;;;;;;8.27;1.60;;;;;;;7.38;68.37;99236.50;5097327;28;20741;-66
2022/01/09 10:20:03;;;;;;;9.57;1.60;;;;;;;7.50;67.39;99229.94;5094169;28;20581;-67
2022/01/09 10:22:37;;;;;;;5.93;1.60;;;;;;;7.43;68.10;99227.13;5101316;28;20262;-66
2022/01/09 10:25:36;;;;;;;5.33;0.97;;;;;;;7.27;68.98;99234.13;5100701;28;20222;-67
2022/01/09 10:28:07;;;;;;;7.03;1.53;;;;;;;7.47;68.81;99236.38;5099383;28;20215;-65
2022/01/09 10:30:39;;;;;;;6.80;1.37;;;;;;;7.63;67.49;99224.25;5095659;28;20228;-66
2022/01/09 10:33:09;;;;;;;8.23;1.77;;;;;;;8.70;64.99;99232.19;5098590;28;20238;-66
2022/01/09 10:35:40;;;;;;;7.97;1.63;;;;;;;8.70;64.10;99248.06;5092985;28;20726;-66
2022/01/09 10:38:16;;;;;;;11.93;2.03;;;;;;;8.44;64.57;99238.47;5096542;28;20228;-66
2022/01/09 10:40:46;;;;;;;5.73;1.37;;;;;;;8.57;64.64;99243.25;5098276;28;20333;-66
2022/01/09 10:43:17;;;;;;;8.73;1.33;;;;;;;10.36;58.99;99227.63;5092348;28;20607;-66
2022/01/09 10:45:47;;;;;;;10.03;1.70;;;;;;;10.18;58.79;99234.03;5094488;28;20206;-66
2022/01/09 10:48:19;;;;;;;4.60;1.00;;;;;;;12.85;52.86;99252.34;5094603;28;20651;-67
2022/01/09 10:50:49;;;;;;;7.30;1.37;;;;;;;14.16;47.04;99237.16;5095686;28;20205;-67
2022/01/09 10:53:27;;;;;;;6.90;1.30;;;;;;;14.85;45.12;99236.06;5093231;28;20360;-67
2022/01/09 10:56:13;;;;;;;9.80;1.90;;;;;;;16.40;42.11;99231.50;5091794;28;20293;-66
2022/01/09 10:58:42;;;;;;;8.70;1.30;;;;;;;15.52;42.25;99243.78;5093431;28;20306;-68
2022/01/09 11:01:28;;;;;;;7.50;1.53;;;;;;;14.89;44.59;99247.97;5099515;28;20679;-67
2022/01/09 11:03:57;;;;;;;7.40;1.63;;;;;;;13.84;47.73;99246.69;5094064;28;20686;-66
2022/01/09 11:06:28;;;;;;;6.47;1.27;;;;;;;12.20;50.74;99254.19;5101774;28;20214;-66
2022/01/09 11:08:57;;;;;;;4.25;1.58;;;;;;;11.79;52.18;99261.03;5103388;27;20300;-66
2022/01/09 11:11:30;;;;;;;6.65;1.75;;;;;;;13.77;47.30;99259.16;5106048;27;20210;-66
2022/01/09 11:14:01;;;;;;;4.50;1.20;;;;;;;15.01;44.92;99260.50;5092550;28;20211;-66
2022/01/09 11:16:37;;;;;;;6.03;1.40;;;;;;;14.62;45.26;99271.13;5086616;28;20294;-62
2022/01/09 11:19:07;;;;;;;5.43;1.60;;;;;;;13.73;48.24;99267.72;5087877;28;20209;-61
2022/01/09 11:21:37;;;;;;;5.68;1.73;;;;;;;13.43;48.89;99272.47;5089267;28;20206;-61
2022/01/09 11:24:29;;;;;;;4.45;1.30;;;;;;;13.54;48.92;99279.94;5078430;28;20211;-63
2022/01/09 11:27:01;;;;;;;6.35;1.35;;;;;;;13.28;48.86;99285.09;5079613;28;20286;-61
2022/01/09 11:29:40;;;;;;;5.20;1.50;;;;;;;13.91;47.33;99276.81;5078392;28;20363;-62
2022/01/09 11:32:28;;;;;;;5.38;1.30;;;;;;;14.34;46.00;99284.56;5079558;28;20238;-60
2022/01/09 11:35:04;;;;;;;4.70;1.20;;;;;;;13.70;47.05;99294.78;5080607;28;20195;-60
2022/01/09 11:37:49;;;;;;;4.70;1.27;;;;;;;14.34;45.61;99297.91;5078213;28;20210;-61
2022/01/09 11:40:25;;;;;;;4.60;1.23;;;;;;;14.05;45.72;99292.91;5075575;28;20230;-62
2022/01/09 11:43:01;;;;;;;4.55;1.63;;;;;;;12.54;49.33;99317.34;5077992;28;20206;-61
2022/01/09 11:45:48;;;;;;;4.38;1.10;;;;;;;12.24;50.49;99305.94;5081781;28;20206;-61
2022/01/09 11:48:17;;;;;;;3.53;1.00;;;;;;;12.16;52.47;99314.03;5079402;28;20214;-61